Summersville, WV

7:22 AM EDT on August 30, 2015 (GMT -0400)
Summersville | | Change Station
CLOSE
Current Station
Personal Weather Station
Location: Summersville, WV
Elevation: 1932 ft
Nearby Weather Stations

Elev 1932 ft 38.30 °N, 80.84 °W | Updated 14 minutes ago

Mostly Cloudy
Mostly Cloudy
57.4 °F
Feels Like 57.4 °F
N
0.0
Wind Variable Wind from South

Today
High -- | Low -- °F
--% Chance of Precip.
Yesterday
High -- | Low -- °F
Precip. -- in
6:50 AM 7:56 PM
Full, 99% visible
Pressure 30.14 in
Visibility 10.0 miles
Clouds Clear
Dew Point 56 °F
Humidity 96%
Rainfall 0.00 in
Snow Depth Not available.
UV 0 out of 12
Pollen 8.70 out of 12
Air Quality Not available.
Flu Activity Not available.
METAR KBKW 301051Z AUTO 17003KT 10SM CLR 18/13 A3023 RMK AO2 SLP206 T01780133
Pressure 30.14 in
Visibility 10.0 miles
Clouds Clear
Dew Point 56 °F
Humidity 96%
Rainfall 0.00 in
Snow Depth Not available.
UV 0 out of 12
Pollen 8.70 out of 12
Air Quality Not available.
Flu Activity Not available.
METAR KBKW 301051Z AUTO 17003KT 10SM CLR 18/13 A3023 RMK AO2 SLP206 T01780133

10-Day Weather Forecast

×

Almanac

Astronomy

Aug. 30, 2015 Rise Set
Actual Time
Civil Twilight
Nautical Twilight
Astronomical Twilight
Moon
Length of Visible Light
Length of Day
Tomorrow will be .
, % of the Moon is Illuminated

Today's Extremes

State Highs State Lows

Community

WunderPhotos

Upload Photos

1,850,929 photos uploaded!

WunderBlogs® & News

Nearby

Air Quality

  Air Quality AQ Index Pollutant
Not available.

Snow Depth

Station Depth Elevation

Earthquake Activity

City Distance Mag. Time & Date
Minimum magnitude displayed is 2.5.

Coastal Water Temperatures

Place Temperature

Stations

Nearby Weather Stations

Station Location Temp. Windchill Dew Point Humidity Wind Precip. Elev Updated Type